Short Hills, New Jersey
Current Conditions -  °F | °C
As of 7:45 AM on Thursday 18 Dec 2014 (Local Time) from KMMU Reporting Station
Broken Clouds Broken Clouds  
Wind Chill: 32°   Ceiling: 4500
Heat Index: 39°   Visibility: 10mi
Dew Point: 23°   Wind: 10mph
Humidity: 52%   Direction: 320°NW
Pressure: 29.99"   Gusts: 23mph
Location:  40.75°N, 74.33°W
Report Text: KMMU 181245Z 32009G20KT 10SM BKN045 04/M05 A2999
Loading
Personal Weather Stations






























Interactive Weather Map New forecast layout! Learn more

10-Day Weather Forecast

Advertisements
Track Severe Weather on mobile